sensor_id;sensor_type;location;lat;lon;timestamp;P1;durP1;ratioP1;P2;durP2;ratioP2
4597;SDS011;62772;48.646;8.906;2022-10-16T00:04:54;6.47;;;3.70;;
4597;SDS011;62772;48.646;8.906;2022-10-16T00:09:57;6.97;;;3.83;;
4597;SDS011;62772;48.646;8.906;2022-10-16T00:14:58;6.73;;;3.60;;
4597;SDS011;62772;48.646;8.906;2022-10-16T00:19:59;6.23;;;3.40;;
4597;SDS011;62772;48.646;8.906;2022-10-16T00:25:03;5.67;;;3.00;;
4597;SDS011;62772;48.646;8.906;2022-10-16T00:30:05;8.27;;;2.83;;
4597;SDS011;62772;48.646;8.906;2022-10-16T00:35:08;4.40;;;2.60;;
4597;SDS011;62772;48.646;8.906;2022-10-16T00:40:12;11.93;;;3.17;;
4597;SDS011;62772;48.646;8.906;2022-10-16T00:45:13;3.67;;;2.50;;
4597;SDS011;62772;48.646;8.906;2022-10-16T00:50:16;4.53;;;2.87;;
4597;SDS011;62772;48.646;8.906;2022-10-16T00:55:25;6.03;;;2.97;;
4597;SDS011;62772;48.646;8.906;2022-10-16T01:00:28;4.07;;;2.57;;
4597;SDS011;62772;48.646;8.906;2022-10-16T01:05:30;4.77;;;2.93;;
4597;SDS011;62772;48.646;8.906;2022-10-16T01:10:38;5.23;;;2.93;;
4597;SDS011;62772;48.646;8.906;2022-10-16T01:15:42;4.70;;;2.93;;
4597;SDS011;62772;48.646;8.906;2022-10-16T01:20:49;3.97;;;2.70;;
4597;SDS011;62772;48.646;8.906;2022-10-16T01:31:36;4.00;;;2.50;;
4597;SDS011;62772;48.646;8.906;2022-10-16T01:36:41;5.80;;;2.53;;
4597;SDS011;62772;48.646;8.906;2022-10-16T01:41:46;5.93;;;2.80;;
4597;SDS011;62772;48.646;8.906;2022-10-16T01:46:54;4.53;;;2.70;;
4597;SDS011;62772;48.646;8.906;2022-10-16T01:51:56;3.60;;;2.40;;
4597;SDS011;62772;48.646;8.906;2022-10-16T01:57:01;6.17;;;2.67;;
4597;SDS011;62772;48.646;8.906;2022-10-16T02:02:08;3.90;;;2.90;;
4597;SDS011;62772;48.646;8.906;2022-10-16T02:07:11;11.10;;;3.03;;
4597;SDS011;62772;48.646;8.906;2022-10-16T02:12:13;5.20;;;2.73;;
4597;SDS011;62772;48.646;8.906;2022-10-16T02:17:23;5.43;;;2.90;;
4597;SDS011;62772;48.646;8.906;2022-10-16T02:22:26;3.87;;;2.70;;
4597;SDS011;62772;48.646;8.906;2022-10-16T02:27:30;3.80;;;2.67;;
4597;SDS011;62772;48.646;8.906;2022-10-16T02:32:39;5.27;;;2.20;;
4597;SDS011;62772;48.646;8.906;2022-10-16T02:37:43;4.70;;;2.60;;
4597;SDS011;62772;48.646;8.906;2022-10-16T02:42:49;4.60;;;2.70;;
4597;SDS011;62772;48.646;8.906;2022-10-16T02:47:53;4.93;;;2.53;;
4597;SDS011;62772;48.646;8.906;2022-10-16T02:52:54;3.97;;;2.80;;
4597;SDS011;62772;48.646;8.906;2022-10-16T02:57:55;4.33;;;2.40;;
4597;SDS011;62772;48.646;8.906;2022-10-16T03:02:58;3.93;;;2.30;;
4597;SDS011;62772;48.646;8.906;2022-10-16T03:07:59;5.53;;;2.67;;
4597;SDS011;62772;48.646;8.906;2022-10-16T03:13:01;6.17;;;2.80;;
4597;SDS011;62772;48.646;8.906;2022-10-16T03:18:04;5.37;;;2.60;;
4597;SDS011;62772;48.646;8.906;2022-10-16T03:23:05;4.40;;;2.50;;
4597;SDS011;62772;48.646;8.906;2022-10-16T03:28:07;3.37;;;2.30;;
4597;SDS011;62772;48.646;8.906;2022-10-16T03:33:10;5.33;;;2.30;;
4597;SDS011;62772;48.646;8.906;2022-10-16T03:38:11;3.50;;;2.27;;
4597;SDS011;62772;48.646;8.906;2022-10-16T03:43:12;4.40;;;2.77;;
4597;SDS011;62772;48.646;8.906;2022-10-16T03:48:15;4.80;;;2.50;;
4597;SDS011;62772;48.646;8.906;2022-10-16T03:53:16;4.50;;;2.83;;
4597;SDS011;62772;48.646;8.906;2022-10-16T03:58:17;4.73;;;2.87;;
4597;SDS011;62772;48.646;8.906;2022-10-16T04:03:22;4.87;;;2.97;;
4597;SDS011;62772;48.646;8.906;2022-10-16T04:08:23;4.10;;;2.60;;
4597;SDS011;62772;48.646;8.906;2022-10-16T04:13:24;3.70;;;2.50;;
4597;SDS011;62772;48.646;8.906;2022-10-16T04:18:27;7.00;;;2.83;;
4597;SDS011;62772;48.646;8.906;2022-10-16T04:23:29;5.53;;;2.70;;
4597;SDS011;62772;48.646;8.906;2022-10-16T04:28:29;8.00;;;2.97;;
4597;SDS011;62772;48.646;8.906;2022-10-16T04:33:33;3.80;;;2.80;;
4597;SDS011;62772;48.646;8.906;2022-10-16T04:38:34;4.40;;;2.67;;
4597;SDS011;62772;48.646;8.906;2022-10-16T04:43:35;5.60;;;3.10;;
4597;SDS011;62772;48.646;8.906;2022-10-16T04:48:38;5.53;;;2.87;;
4597;SDS011;62772;48.646;8.906;2022-10-16T04:53:39;4.70;;;2.63;;
4597;SDS011;62772;48.646;8.906;2022-10-16T04:58:40;4.93;;;2.50;;
4597;SDS011;62772;48.646;8.906;2022-10-16T05:03:43;6.63;;;3.50;;
4597;SDS011;62772;48.646;8.906;2022-10-16T05:08:44;4.30;;;2.80;;
4597;SDS011;62772;48.646;8.906;2022-10-16T05:13:45;4.77;;;2.57;;
4597;SDS011;62772;48.646;8.906;2022-10-16T05:18:48;4.55;;;2.70;;
4597;SDS011;62772;48.646;8.906;2022-10-16T05:23:52;6.90;;;2.90;;
4597;SDS011;62772;48.646;8.906;2022-10-16T05:28:53;4.40;;;2.80;;
4597;SDS011;62772;48.646;8.906;2022-10-16T05:34:00;4.37;;;2.77;;
4597;SDS011;62772;48.646;8.906;2022-10-16T05:39:01;5.50;;;2.83;;
4597;SDS011;62772;48.646;8.906;2022-10-16T05:44:03;8.20;;;3.10;;
4597;SDS011;62772;48.646;8.906;2022-10-16T05:49:08;4.93;;;2.77;;
4597;SDS011;62772;48.646;8.906;2022-10-16T05:54:09;5.90;;;2.97;;
4597;SDS011;62772;48.646;8.906;2022-10-16T05:59:09;7.43;;;3.00;;
4597;SDS011;62772;48.646;8.906;2022-10-16T06:04:17;6.43;;;2.93;;
4597;SDS011;62772;48.646;8.906;2022-10-16T06:09:18;5.07;;;2.77;;
4597;SDS011;62772;48.646;8.906;2022-10-16T06:14:19;5.70;;;2.80;;
4597;SDS011;62772;48.646;8.906;2022-10-16T06:19:22;4.27;;;3.00;;
4597;SDS011;62772;48.646;8.906;2022-10-16T06:24:24;3.70;;;2.70;;
4597;SDS011;62772;48.646;8.906;2022-10-16T06:29:24;5.37;;;3.10;;
4597;SDS011;62772;48.646;8.906;2022-10-16T06:34:28;6.03;;;3.97;;
4597;SDS011;62772;48.646;8.906;2022-10-16T06:39:28;4.83;;;3.23;;
4597;SDS011;62772;48.646;8.906;2022-10-16T06:44:29;5.70;;;3.20;;
4597;SDS011;62772;48.646;8.906;2022-10-16T06:49:33;4.23;;;2.80;;
4597;SDS011;62772;48.646;8.906;2022-10-16T06:54:33;6.37;;;3.20;;
4597;SDS011;62772;48.646;8.906;2022-10-16T06:59:34;5.83;;;2.77;;
4597;SDS011;62772;48.646;8.906;2022-10-16T07:04:37;7.37;;;3.00;;
4597;SDS011;62772;48.646;8.906;2022-10-16T07:09:38;4.90;;;2.90;;
4597;SDS011;62772;48.646;8.906;2022-10-16T07:14:40;14.60;;;3.20;;
4597;SDS011;62772;48.646;8.906;2022-10-16T07:19:44;6.50;;;3.47;;
4597;SDS011;62772;48.646;8.906;2022-10-16T07:24:45;6.60;;;3.20;;
4597;SDS011;62772;48.646;8.906;2022-10-16T07:29:45;6.43;;;3.70;;
4597;SDS011;62772;48.646;8.906;2022-10-16T07:34:49;7.83;;;4.70;;
4597;SDS011;62772;48.646;8.906;2022-10-16T07:39:50;7.47;;;3.37;;
4597;SDS011;62772;48.646;8.906;2022-10-16T07:44:50;6.60;;;4.00;;
4597;SDS011;62772;48.646;8.906;2022-10-16T07:49:54;24.73;;;4.77;;
4597;SDS011;62772;48.646;8.906;2022-10-16T07:54:54;5.57;;;3.40;;
4597;SDS011;62772;48.646;8.906;2022-10-16T07:59:55;9.27;;;3.30;;
4597;SDS011;62772;48.646;8.906;2022-10-16T08:04:59;6.17;;;3.10;;
4597;SDS011;62772;48.646;8.906;2022-10-16T08:10:00;5.93;;;2.80;;
4597;SDS011;62772;48.646;8.906;2022-10-16T08:15:00;7.40;;;2.87;;
4597;SDS011;62772;48.646;8.906;2022-10-16T08:20:04;6.17;;;2.70;;
4597;SDS011;62772;48.646;8.906;2022-10-16T08:25:06;5.10;;;2.70;;
4597;SDS011;62772;48.646;8.906;2022-10-16T08:30:09;4.50;;;2.97;;
4597;SDS011;62772;48.646;8.906;2022-10-16T08:35:13;4.23;;;2.70;;
4597;SDS011;62772;48.646;8.906;2022-10-16T08:40:16;3.63;;;2.30;;
4597;SDS011;62772;48.646;8.906;2022-10-16T08:45:21;3.43;;;2.40;;
4597;SDS011;62772;48.646;8.906;2022-10-16T08:50:41;7.10;;;3.23;;
4597;SDS011;62772;48.646;8.906;2022-10-16T08:55:43;4.70;;;2.77;;
4597;SDS011;62772;48.646;8.906;2022-10-16T09:00:46;5.83;;;2.73;;
4597;SDS011;62772;48.646;8.906;2022-10-16T09:06:00;3.90;;;3.07;;
4597;SDS011;62772;48.646;8.906;2022-10-16T09:11:12;4.00;;;2.63;;
4597;SDS011;62772;48.646;8.906;2022-10-16T09:16:22;4.43;;;2.23;;
4597;SDS011;62772;48.646;8.906;2022-10-16T09:21:31;4.77;;;2.43;;
4597;SDS011;62772;48.646;8.906;2022-10-16T09:26:35;3.63;;;2.40;;
4597;SDS011;62772;48.646;8.906;2022-10-16T09:31:36;3.40;;;2.20;;
4597;SDS011;62772;48.646;8.906;2022-10-16T09:36:41;3.43;;;2.17;;
4597;SDS011;62772;48.646;8.906;2022-10-16T09:41:45;5.20;;;2.40;;
4597;SDS011;62772;48.646;8.906;2022-10-16T09:46:46;4.60;;;2.77;;
4597;SDS011;62772;48.646;8.906;2022-10-16T09:51:49;4.40;;;2.57;;
4597;SDS011;62772;48.646;8.906;2022-10-16T09:56:51;3.60;;;2.10;;
4597;SDS011;62772;48.646;8.906;2022-10-16T10:01:54;3.30;;;2.00;;
4597;SDS011;62772;48.646;8.906;2022-10-16T10:06:58;3.13;;;2.10;;
4597;SDS011;62772;48.646;8.906;2022-10-16T10:12:00;3.70;;;2.40;;
4597;SDS011;62772;48.646;8.906;2022-10-16T10:17:12;7.50;;;2.23;;
4597;SDS011;62772;48.646;8.906;2022-10-16T10:22:25;4.27;;;2.00;;
4597;SDS011;62772;48.646;8.906;2022-10-16T10:27:32;3.77;;;2.40;;
4597;SDS011;62772;48.646;8.906;2022-10-16T10:32:40;3.67;;;2.40;;
4597;SDS011;62772;48.646;8.906;2022-10-16T10:37:54;5.00;;;1.87;;
4597;SDS011;62772;48.646;8.906;2022-10-16T10:43:04;5.13;;;2.40;;
4597;SDS011;62772;48.646;8.906;2022-10-16T10:48:16;7.13;;;2.17;;
4597;SDS011;62772;48.646;8.906;2022-10-16T10:53:31;5.90;;;2.27;;
4597;SDS011;62772;48.646;8.906;2022-10-16T10:58:45;7.50;;;2.17;;
4597;SDS011;62772;48.646;8.906;2022-10-16T11:04:01;3.27;;;2.17;;
4597;SDS011;62772;48.646;8.906;2022-10-16T11:09:27;2.77;;;1.97;;
4597;SDS011;62772;48.646;8.906;2022-10-16T11:14:34;2.90;;;1.90;;
4597;SDS011;62772;48.646;8.906;2022-10-16T11:19:39;4.80;;;2.60;;
4597;SDS011;62772;48.646;8.906;2022-10-16T11:24:48;3.63;;;2.20;;
4597;SDS011;62772;48.646;8.906;2022-10-16T11:29:52;3.60;;;2.30;;
4597;SDS011;62772;48.646;8.906;2022-10-16T11:34:59;2.90;;;2.00;;
4597;SDS011;62772;48.646;8.906;2022-10-16T11:40:10;4.00;;;2.00;;
4597;SDS011;62772;48.646;8.906;2022-10-16T11:45:23;6.33;;;2.33;;
4597;SDS011;62772;48.646;8.906;2022-10-16T11:50:29;4.00;;;1.73;;
4597;SDS011;62772;48.646;8.906;2022-10-16T11:55:38;4.23;;;2.27;;
4597;SDS011;62772;48.646;8.906;2022-10-16T12:00:42;3.90;;;2.30;;
4597;SDS011;62772;48.646;8.906;2022-10-16T12:05:56;3.17;;;1.73;;
4597;SDS011;62772;48.646;8.906;2022-10-16T12:11:09;7.37;;;2.30;;
4597;SDS011;62772;48.646;8.906;2022-10-16T12:16:23;3.33;;;2.20;;
4597;SDS011;62772;48.646;8.906;2022-10-16T12:21:29;3.10;;;2.07;;
4597;SDS011;62772;48.646;8.906;2022-10-16T12:26:34;4.07;;;1.90;;
4597;SDS011;62772;48.646;8.906;2022-10-16T12:31:39;3.90;;;2.30;;
4597;SDS011;62772;48.646;8.906;2022-10-16T12:36:46;3.80;;;2.10;;
4597;SDS011;62772;48.646;8.906;2022-10-16T12:41:53;3.40;;;2.10;;
4597;SDS011;62772;48.646;8.906;2022-10-16T12:47:01;4.43;;;2.13;;
4597;SDS011;62772;48.646;8.906;2022-10-16T12:52:03;4.60;;;2.20;;
4597;SDS011;62772;48.646;8.906;2022-10-16T12:57:13;13.97;;;3.67;;
4597;SDS011;62772;48.646;8.906;2022-10-16T13:08:16;3.80;;;2.10;;
4597;SDS011;62772;48.646;8.906;2022-10-16T13:13:44;3.73;;;2.10;;
4597;SDS011;62772;48.646;8.906;2022-10-16T13:19:00;4.50;;;1.90;;
4597;SDS011;62772;48.646;8.906;2022-10-16T13:24:15;4.07;;;2.27;;
4597;SDS011;62772;48.646;8.906;2022-10-16T13:29:28;5.67;;;2.10;;
4597;SDS011;62772;48.646;8.906;2022-10-16T13:34:30;4.30;;;2.23;;
4597;SDS011;62772;48.646;8.906;2022-10-16T13:39:31;5.40;;;2.10;;
4597;SDS011;62772;48.646;8.906;2022-10-16T13:44:36;6.03;;;2.00;;
4597;SDS011;62772;48.646;8.906;2022-10-16T13:49:42;3.33;;;2.00;;
4597;SDS011;62772;48.646;8.906;2022-10-16T13:54:42;3.60;;;2.13;;
4597;SDS011;62772;48.646;8.906;2022-10-16T13:59:46;4.07;;;2.13;;
4597;SDS011;62772;48.646;8.906;2022-10-16T14:04:46;3.87;;;2.10;;
4597;SDS011;62772;48.646;8.906;2022-10-16T14:09:49;2.80;;;2.00;;
4597;SDS011;62772;48.646;8.906;2022-10-16T14:14:54;3.03;;;2.20;;
4597;SDS011;62772;48.646;8.906;2022-10-16T14:19:58;4.90;;;3.07;;
4597;SDS011;62772;48.646;8.906;2022-10-16T14:25:00;3.63;;;2.40;;
4597;SDS011;62772;48.646;8.906;2022-10-16T14:30:15;4.00;;;2.30;;
4597;SDS011;62772;48.646;8.906;2022-10-16T14:35:25;3.67;;;2.13;;
4597;SDS011;62772;48.646;8.906;2022-10-16T14:40:28;4.70;;;2.53;;
4597;SDS011;62772;48.646;8.906;2022-10-16T14:45:34;3.67;;;2.13;;
4597;SDS011;62772;48.646;8.906;2022-10-16T14:50:35;8.43;;;2.67;;
4597;SDS011;62772;48.646;8.906;2022-10-16T14:55:36;4.93;;;2.20;;
4597;SDS011;62772;48.646;8.906;2022-10-16T15:00:40;3.90;;;2.30;;
4597;SDS011;62772;48.646;8.906;2022-10-16T15:05:41;3.67;;;2.40;;
4597;SDS011;62772;48.646;8.906;2022-10-16T15:10:42;5.47;;;2.40;;
4597;SDS011;62772;48.646;8.906;2022-10-16T15:15:46;3.33;;;2.10;;
4597;SDS011;62772;48.646;8.906;2022-10-16T15:20:49;3.70;;;2.23;;
4597;SDS011;62772;48.646;8.906;2022-10-16T15:25:51;3.97;;;2.47;;
4597;SDS011;62772;48.646;8.906;2022-10-16T15:30:57;3.77;;;2.50;;
4597;SDS011;62772;48.646;8.906;2022-10-16T15:35:57;5.57;;;2.90;;
4597;SDS011;62772;48.646;8.906;2022-10-16T15:40:59;5.13;;;2.83;;
4597;SDS011;62772;48.646;8.906;2022-10-16T15:46:03;3.43;;;2.50;;
4597;SDS011;62772;48.646;8.906;2022-10-16T15:51:06;6.03;;;3.27;;
4597;SDS011;62772;48.646;8.906;2022-10-16T15:56:08;5.90;;;4.00;;
4597;SDS011;62772;48.646;8.906;2022-10-16T16:01:14;11.10;;;5.07;;
4597;SDS011;62772;48.646;8.906;2022-10-16T16:06:15;6.60;;;3.67;;
4597;SDS011;62772;48.646;8.906;2022-10-16T16:11:16;8.00;;;3.30;;
4597;SDS011;62772;48.646;8.906;2022-10-16T16:16:20;4.37;;;2.97;;
4597;SDS011;62772;48.646;8.906;2022-10-16T16:21:21;6.90;;;3.63;;
4597;SDS011;62772;48.646;8.906;2022-10-16T16:26:23;6.73;;;2.93;;
4597;SDS011;62772;48.646;8.906;2022-10-16T16:31:32;4.07;;;2.60;;
4597;SDS011;62772;48.646;8.906;2022-10-16T16:36:34;7.93;;;3.30;;
4597;SDS011;62772;48.646;8.906;2022-10-16T16:41:35;7.87;;;3.43;;
4597;SDS011;62772;48.646;8.906;2022-10-16T16:46:38;7.33;;;3.67;;
4597;SDS011;62772;48.646;8.906;2022-10-16T16:51:39;6.53;;;3.70;;
4597;SDS011;62772;48.646;8.906;2022-10-16T16:56:41;7.50;;;3.97;;
4597;SDS011;62772;48.646;8.906;2022-10-16T17:01:47;34.50;;;15.10;;
4597;SDS011;62772;48.646;8.906;2022-10-16T17:06:48;5.93;;;3.80;;
4597;SDS011;62772;48.646;8.906;2022-10-16T17:11:49;10.73;;;4.70;;
4597;SDS011;62772;48.646;8.906;2022-10-16T17:16:53;6.60;;;4.07;;
4597;SDS011;62772;48.646;8.906;2022-10-16T17:21:53;10.60;;;4.63;;
4597;SDS011;62772;48.646;8.906;2022-10-16T17:26:54;11.07;;;6.80;;
4597;SDS011;62772;48.646;8.906;2022-10-16T17:31:57;8.07;;;5.10;;
4597;SDS011;62772;48.646;8.906;2022-10-16T17:36:59;7.23;;;4.90;;
4597;SDS011;62772;48.646;8.906;2022-10-16T17:41:59;9.40;;;4.93;;
4597;SDS011;62772;48.646;8.906;2022-10-16T17:47:03;7.23;;;4.60;;
4597;SDS011;62772;48.646;8.906;2022-10-16T17:52:04;10.90;;;5.37;;
4597;SDS011;62772;48.646;8.906;2022-10-16T17:57:05;12.20;;;5.57;;
4597;SDS011;62772;48.646;8.906;2022-10-16T18:02:09;10.80;;;5.33;;
4597;SDS011;62772;48.646;8.906;2022-10-16T18:07:10;7.97;;;4.80;;
4597;SDS011;62772;48.646;8.906;2022-10-16T18:12:12;9.87;;;5.00;;
4597;SDS011;62772;48.646;8.906;2022-10-16T18:17:16;9.80;;;5.70;;
4597;SDS011;62772;48.646;8.906;2022-10-16T18:22:18;8.60;;;5.10;;
4597;SDS011;62772;48.646;8.906;2022-10-16T18:27:19;7.73;;;5.33;;
4597;SDS011;62772;48.646;8.906;2022-10-16T18:32:22;7.43;;;4.43;;
4597;SDS011;62772;48.646;8.906;2022-10-16T18:37:24;8.80;;;4.60;;
4597;SDS011;62772;48.646;8.906;2022-10-16T18:42:25;6.90;;;4.70;;
4597;SDS011;62772;48.646;8.906;2022-10-16T18:47:29;7.90;;;4.37;;
4597;SDS011;62772;48.646;8.906;2022-10-16T18:52:30;8.97;;;4.20;;
4597;SDS011;62772;48.646;8.906;2022-10-16T18:57:31;8.10;;;4.30;;
4597;SDS011;62772;48.646;8.906;2022-10-16T19:02:35;8.80;;;4.13;;
4597;SDS011;62772;48.646;8.906;2022-10-16T19:07:35;6.30;;;4.13;;
4597;SDS011;62772;48.646;8.906;2022-10-16T19:12:36;7.20;;;4.07;;
4597;SDS011;62772;48.646;8.906;2022-10-16T19:17:39;9.57;;;5.90;;
4597;SDS011;62772;48.646;8.906;2022-10-16T19:22:41;17.23;;;5.97;;
4597;SDS011;62772;48.646;8.906;2022-10-16T19:27:53;8.70;;;5.30;;
4597;SDS011;62772;48.646;8.906;2022-10-16T19:32:56;11.70;;;4.80;;
4597;SDS011;62772;48.646;8.906;2022-10-16T19:37:57;9.03;;;5.83;;
4597;SDS011;62772;48.646;8.906;2022-10-16T19:42:58;8.60;;;5.20;;
4597;SDS011;62772;48.646;8.906;2022-10-16T19:48:02;9.77;;;4.97;;
4597;SDS011;62772;48.646;8.906;2022-10-16T19:53:03;8.60;;;4.90;;
4597;SDS011;62772;48.646;8.906;2022-10-16T19:58:04;19.10;;;5.03;;
4597;SDS011;62772;48.646;8.906;2022-10-16T20:03:07;7.73;;;5.10;;
4597;SDS011;62772;48.646;8.906;2022-10-16T20:08:08;6.90;;;4.90;;
4597;SDS011;62772;48.646;8.906;2022-10-16T20:13:09;9.37;;;5.60;;
4597;SDS011;62772;48.646;8.906;2022-10-16T20:18:14;9.43;;;5.00;;
4597;SDS011;62772;48.646;8.906;2022-10-16T20:23:16;11.67;;;5.30;;
4597;SDS011;62772;48.646;8.906;2022-10-16T20:28:17;6.90;;;4.77;;
4597;SDS011;62772;48.646;8.906;2022-10-16T20:33:23;6.83;;;4.37;;
4597;SDS011;62772;48.646;8.906;2022-10-16T20:38:24;7.20;;;4.60;;
4597;SDS011;62772;48.646;8.906;2022-10-16T20:43:25;7.10;;;4.60;;
4597;SDS011;62772;48.646;8.906;2022-10-16T20:48:29;9.17;;;5.00;;
4597;SDS011;62772;48.646;8.906;2022-10-16T20:53:30;19.07;;;4.83;;
4597;SDS011;62772;48.646;8.906;2022-10-16T20:58:31;7.33;;;4.93;;
4597;SDS011;62772;48.646;8.906;2022-10-16T21:03:34;6.43;;;4.27;;
4597;SDS011;62772;48.646;8.906;2022-10-16T21:08:36;9.13;;;4.27;;
4597;SDS011;62772;48.646;8.906;2022-10-16T21:13:38;7.33;;;4.67;;
4597;SDS011;62772;48.646;8.906;2022-10-16T21:18:41;6.20;;;4.40;;
4597;SDS011;62772;48.646;8.906;2022-10-16T21:23:43;8.77;;;5.40;;
4597;SDS011;62772;48.646;8.906;2022-10-16T21:28:46;7.77;;;4.73;;
4597;SDS011;62772;48.646;8.906;2022-10-16T21:33:50;10.77;;;4.47;;
4597;SDS011;62772;48.646;8.906;2022-10-16T21:38:52;11.40;;;4.80;;
4597;SDS011;62772;48.646;8.906;2022-10-16T21:43:54;7.20;;;4.50;;
4597;SDS011;62772;48.646;8.906;2022-10-16T21:48:58;6.80;;;4.27;;
4597;SDS011;62772;48.646;8.906;2022-10-16T21:54:00;6.30;;;4.20;;
4597;SDS011;62772;48.646;8.906;2022-10-16T21:59:01;6.90;;;4.70;;
4597;SDS011;62772;48.646;8.906;2022-10-16T22:04:06;8.77;;;4.50;;
4597;SDS011;62772;48.646;8.906;2022-10-16T22:09:08;8.33;;;4.80;;
4597;SDS011;62772;48.646;8.906;2022-10-16T22:14:14;9.07;;;4.60;;
4597;SDS011;62772;48.646;8.906;2022-10-16T22:19:20;5.90;;;4.03;;
4597;SDS011;62772;48.646;8.906;2022-10-16T22:24:21;6.90;;;4.43;;
4597;SDS011;62772;48.646;8.906;2022-10-16T22:29:22;6.07;;;4.00;;
4597;SDS011;62772;48.646;8.906;2022-10-16T22:34:26;8.67;;;4.33;;
4597;SDS011;62772;48.646;8.906;2022-10-16T22:39:28;7.97;;;4.77;;
4597;SDS011;62772;48.646;8.906;2022-10-16T22:44:29;7.43;;;4.50;;
4597;SDS011;62772;48.646;8.906;2022-10-16T22:49:32;5.90;;;3.90;;
4597;SDS011;62772;48.646;8.906;2022-10-16T22:54:34;6.13;;;4.17;;
4597;SDS011;62772;48.646;8.906;2022-10-16T22:59:34;6.37;;;4.10;;
4597;SDS011;62772;48.646;8.906;2022-10-16T23:04:38;5.90;;;3.83;;
4597;SDS011;62772;48.646;8.906;2022-10-16T23:09:39;7.23;;;4.00;;
4597;SDS011;62772;48.646;8.906;2022-10-16T23:14:40;6.30;;;4.10;;
4597;SDS011;62772;48.646;8.906;2022-10-16T23:19:43;10.93;;;3.57;;
4597;SDS011;62772;48.646;8.906;2022-10-16T23:24:44;9.33;;;4.50;;
4597;SDS011;62772;48.646;8.906;2022-10-16T23:29:45;5.80;;;3.90;;
4597;SDS011;62772;48.646;8.906;2022-10-16T23:34:48;6.00;;;3.83;;
4597;SDS011;62772;48.646;8.906;2022-10-16T23:39:49;5.60;;;3.80;;
4597;SDS011;62772;48.646;8.906;2022-10-16T23:44:50;14.20;;;4.20;;
4597;SDS011;62772;48.646;8.906;2022-10-16T23:49:53;8.80;;;4.03;;
4597;SDS011;62772;48.646;8.906;2022-10-16T23:54:54;7.03;;;3.93;;
4597;SDS011;62772;48.646;8.906;2022-10-16T23:59:57;4.70;;;3.27;;
